sensor_id;sensor_type;location;lat;lon;timestamp;pressure;altitude;pressure_sealevel;temperature
19102;BMP280;9683;49.028;12.064;2023-09-19T00:00:14;96847.47;;;19.10
19102;BMP280;9683;49.028;12.064;2023-09-19T00:02:46;96824.41;;;18.94
19102;BMP280;9683;49.028;12.064;2023-09-19T00:05:13;96854.16;;;19.13
19102;BMP280;9683;49.028;12.064;2023-09-19T00:07:40;96858.47;;;19.14
19102;BMP280;9683;49.028;12.064;2023-09-19T00:10:07;96845.25;;;19.12
19102;BMP280;9683;49.028;12.064;2023-09-19T00:12:35;96843.38;;;19.13
19102;BMP280;9683;49.028;12.064;2023-09-19T00:15:01;96847.97;;;19.12
19102;BMP280;9683;49.028;12.064;2023-09-19T00:17:31;96842.34;;;19.09
19102;BMP280;9683;49.028;12.064;2023-09-19T00:19:59;96845.78;;;19.14
19102;BMP280;9683;49.028;12.064;2023-09-19T00:22:39;96846.88;;;19.13
19102;BMP280;9683;49.028;12.064;2023-09-19T00:25:06;96843.63;;;19.11
19102;BMP280;9683;49.028;12.064;2023-09-19T00:27:32;96838.25;;;19.11
19102;BMP280;9683;49.028;12.064;2023-09-19T00:30:00;96843.13;;;19.09
19102;BMP280;9683;49.028;12.064;2023-09-19T00:32:26;96843.63;;;19.11
19102;BMP280;9683;49.028;12.064;2023-09-19T00:34:56;96849.84;;;19.12
19102;BMP280;9683;49.028;12.064;2023-09-19T00:37:24;96838.25;;;19.11
19102;BMP280;9683;49.028;12.064;2023-09-19T00:39:50;96842.34;;;19.09
19102;BMP280;9683;49.028;12.064;2023-09-19T00:42:18;96854.44;;;19.11
19102;BMP280;9683;49.028;12.064;2023-09-19T00:44:46;96842.59;;;19.07
19102;BMP280;9683;49.028;12.064;2023-09-19T00:47:16;96852.53;;;19.12
19102;BMP280;9683;49.028;12.064;2023-09-19T00:49:43;96850.16;;;19.10
19102;BMP280;9683;49.028;12.064;2023-09-19T00:52:11;96853.88;;;19.14
19102;BMP280;9683;49.028;12.064;2023-09-19T00:54:39;96856.03;;;19.12
19102;BMP280;9683;49.028;12.064;2023-09-19T00:57:06;96852.84;;;19.10
19102;BMP280;9683;49.028;12.064;2023-09-19T00:59:33;96838.88;;;19.03
19102;BMP280;9683;49.028;12.064;2023-09-19T01:02:01;96846.66;;;19.10
19102;BMP280;9683;49.028;12.064;2023-09-19T01:04:29;96850.94;;;19.11
19102;BMP280;9683;49.028;12.064;2023-09-19T01:06:55;96833.47;;;19.03
19102;BMP280;9683;49.028;12.064;2023-09-19T01:09:23;96847.97;;;19.12
19102;BMP280;9683;49.028;12.064;2023-09-19T01:11:53;96840.66;;;19.13
19102;BMP280;9683;49.028;12.064;2023-09-19T01:14:31;96838.81;;;19.08
19102;BMP280;9683;49.028;12.064;2023-09-19T01:17:04;96846.28;;;19.16
19102;BMP280;9683;49.028;12.064;2023-09-19T01:22:43;96851.63;;;19.21
19102;BMP280;9683;49.028;12.064;2023-09-19T01:25:33;96861.78;;;19.30
19102;BMP280;9683;49.028;12.064;2023-09-19T01:28:34;96848.06;;;19.26
19102;BMP280;9683;49.028;12.064;2023-09-19T01:31:09;96853.09;;;19.33
19102;BMP280;9683;49.028;12.064;2023-09-19T01:33:59;96851.44;;;19.37
19102;BMP280;9683;49.028;12.064;2023-09-19T01:36:31;96861.13;;;19.38
19102;BMP280;9683;49.028;12.064;2023-09-19T01:39:02;96864.66;;;19.38
19102;BMP280;9683;49.028;12.064;2023-09-19T01:41:52;96865.16;;;19.40
19102;BMP280;9683;49.028;12.064;2023-09-19T01:44:25;96866.31;;;19.34
19102;BMP280;9683;49.028;12.064;2023-09-19T01:46:58;96864.72;;;19.33
19102;BMP280;9683;49.028;12.064;2023-09-19T01:49:33;96857.53;;;19.23
19102;BMP280;9683;49.028;12.064;2023-09-19T01:52:09;96865.56;;;19.29
19102;BMP280;9683;49.028;12.064;2023-09-19T01:54:42;96873.66;;;19.29
19102;BMP280;9683;49.028;12.064;2023-09-19T01:57:17;96875.34;;;19.24
19102;BMP280;9683;49.028;12.064;2023-09-19T01:59:50;96869.44;;;19.22
19102;BMP280;9683;49.028;12.064;2023-09-19T02:02:20;96865.72;;;19.18
19102;BMP280;9683;49.028;12.064;2023-09-19T02:04:47;96868.97;;;19.15
19102;BMP280;9683;49.028;12.064;2023-09-19T02:07:15;96875.97;;;19.16
19102;BMP280;9683;49.028;12.064;2023-09-19T02:09:42;96864.50;;;19.06
19102;BMP280;9683;49.028;12.064;2023-09-19T02:12:09;96872.78;;;19.14
19102;BMP280;9683;49.028;12.064;2023-09-19T02:14:35;96880.56;;;19.16
19102;BMP280;9683;49.028;12.064;2023-09-19T02:17:03;96879.47;;;19.17
19102;BMP280;9683;49.028;12.064;2023-09-19T02:19:32;96875.69;;;19.18
19102;BMP280;9683;49.028;12.064;2023-09-19T02:21:59;96868.16;;;19.15
19102;BMP280;9683;49.028;12.064;2023-09-19T02:24:28;96873.00;;;19.18
19102;BMP280;9683;49.028;12.064;2023-09-19T02:26:55;96874.88;;;19.17
19102;BMP280;9683;49.028;12.064;2023-09-19T02:29:22;96854.84;;;19.00
19102;BMP280;9683;49.028;12.064;2023-09-19T02:31:50;96881.09;;;19.18
19102;BMP280;9683;49.028;12.064;2023-09-19T02:34:16;96885.09;;;19.20
19102;BMP280;9683;49.028;12.064;2023-09-19T02:36:44;96884.50;;;19.23
19102;BMP280;9683;49.028;12.064;2023-09-19T02:39:12;96882.41;;;19.20
19102;BMP280;9683;49.028;12.064;2023-09-19T02:41:38;96881.31;;;19.21
19102;BMP280;9683;49.028;12.064;2023-09-19T02:44:07;96880.22;;;19.22
19102;BMP280;9683;49.028;12.064;2023-09-19T02:46:33;96874.59;;;19.19
19102;BMP280;9683;49.028;12.064;2023-09-19T02:49:01;96887.75;;;19.26
19102;BMP280;9683;49.028;12.064;2023-09-19T02:51:28;96883.16;;;19.26
19102;BMP280;9683;49.028;12.064;2023-09-19T02:53:56;96890.66;;;19.29
19102;BMP280;9683;49.028;12.064;2023-09-19T02:56:23;96905.78;;;19.30
19102;BMP280;9683;49.028;12.064;2023-09-19T02:58:50;96897.16;;;19.28
19102;BMP280;9683;49.028;12.064;2023-09-19T03:01:17;96910.38;;;19.30
19102;BMP280;9683;49.028;12.064;2023-09-19T03:03:44;96916.56;;;19.30
19102;BMP280;9683;49.028;12.064;2023-09-19T03:06:11;96902.81;;;19.32
19102;BMP280;9683;49.028;12.064;2023-09-19T03:08:39;96903.06;;;19.30
19102;BMP280;9683;49.028;12.064;2023-09-19T03:11:08;96896.13;;;19.24
19102;BMP280;9683;49.028;12.064;2023-09-19T03:13:36;96908.53;;;19.25
19102;BMP280;9683;49.028;12.064;2023-09-19T03:16:03;96919.28;;;19.30
19102;BMP280;9683;49.028;12.064;2023-09-19T03:18:31;96910.19;;;19.21
19102;BMP280;9683;49.028;12.064;2023-09-19T03:20:57;96920.41;;;19.24
19102;BMP280;9683;49.028;12.064;2023-09-19T03:23:25;96931.16;;;19.29
19102;BMP280;9683;49.028;12.064;2023-09-19T03:25:52;96923.09;;;19.24
19102;BMP280;9683;49.028;12.064;2023-09-19T03:28:21;96932.31;;;19.23
19102;BMP280;9683;49.028;12.064;2023-09-19T03:30:57;96926.34;;;19.26
19102;BMP280;9683;49.028;12.064;2023-09-19T03:33:25;96923.41;;;19.22
19102;BMP280;9683;49.028;12.064;2023-09-19T03:35:52;96908.63;;;19.15
19102;BMP280;9683;49.028;12.064;2023-09-19T03:38:18;96920.97;;;19.21
19102;BMP280;9683;49.028;12.064;2023-09-19T03:40:45;96925.34;;;19.17
19102;BMP280;9683;49.028;12.064;2023-09-19T03:43:12;96918.63;;;19.14
19102;BMP280;9683;49.028;12.064;2023-09-19T03:45:40;96922.38;;;19.18
19102;BMP280;9683;49.028;12.064;2023-09-19T03:48:08;96925.38;;;19.12
19102;BMP280;9683;49.028;12.064;2023-09-19T03:50:35;96930.78;;;19.12
19102;BMP280;9683;49.028;12.064;2023-09-19T03:53:01;96925.22;;;19.03
19102;BMP280;9683;49.028;12.064;2023-09-19T03:55:28;96935.72;;;19.05
19102;BMP280;9683;49.028;12.064;2023-09-19T03:57:56;96939.28;;;19.00
19102;BMP280;9683;49.028;12.064;2023-09-19T04:00:22;96938.75;;;18.98
19102;BMP280;9683;49.028;12.064;2023-09-19T04:02:52;96936.91;;;18.94
19102;BMP280;9683;49.028;12.064;2023-09-19T04:05:21;96936.91;;;18.94
19102;BMP280;9683;49.028;12.064;2023-09-19T04:07:48;96929.97;;;18.88
19102;BMP280;9683;49.028;12.064;2023-09-19T04:10:15;96948.25;;;18.91
19102;BMP280;9683;49.028;12.064;2023-09-19T04:12:50;96905.56;;;18.69
19102;BMP280;9683;49.028;12.064;2023-09-19T04:15:17;96937.47;;;18.91
19102;BMP280;9683;49.028;12.064;2023-09-19T04:17:43;96949.06;;;18.91
19102;BMP280;9683;49.028;12.064;2023-09-19T04:20:11;96943.16;;;18.89
19102;BMP280;9683;49.028;12.064;2023-09-19T04:22:38;96951.00;;;18.86
19102;BMP280;9683;49.028;12.064;2023-09-19T04:25:05;96943.22;;;18.84
19102;BMP280;9683;49.028;12.064;2023-09-19T04:27:33;96945.91;;;18.84
19102;BMP280;9683;49.028;12.064;2023-09-19T04:29:59;96944.00;;;18.85
19102;BMP280;9683;49.028;12.064;2023-09-19T04:32:28;96950.50;;;18.84
19102;BMP280;9683;49.028;12.064;2023-09-19T04:34:54;96946.56;;;18.71
19102;BMP280;9683;49.028;12.064;2023-09-19T04:37:26;96934.16;;;18.70
19102;BMP280;9683;49.028;12.064;2023-09-19T04:39:54;96957.31;;;18.76
19102;BMP280;9683;49.028;12.064;2023-09-19T04:42:20;96962.16;;;18.74
19102;BMP280;9683;49.028;12.064;2023-09-19T04:44:47;96957.56;;;18.74
19102;BMP280;9683;49.028;12.064;2023-09-19T04:47:14;96966.22;;;18.71
19102;BMP280;9683;49.028;12.064;2023-09-19T04:49:41;96967.84;;;18.72
19102;BMP280;9683;49.028;12.064;2023-09-19T04:52:08;96963.81;;;18.70
19102;BMP280;9683;49.028;12.064;2023-09-19T04:54:36;96971.09;;;18.69
19102;BMP280;9683;49.028;12.064;2023-09-19T04:57:03;96964.94;;;18.64
19102;BMP280;9683;49.028;12.064;2023-09-19T04:59:31;96968.97;;;18.66
19102;BMP280;9683;49.028;12.064;2023-09-19T05:01:58;96977.88;;;18.67
19102;BMP280;9683;49.028;12.064;2023-09-19T05:04:24;96978.94;;;18.66
19102;BMP280;9683;49.028;12.064;2023-09-19T05:06:51;96946.97;;;18.49
19102;BMP280;9683;49.028;12.064;2023-09-19T05:09:17;96959.16;;;18.42
19102;BMP280;9683;49.028;12.064;2023-09-19T05:11:46;96970.94;;;18.56
19102;BMP280;9683;49.028;12.064;2023-09-19T05:14:14;96977.16;;;18.51
19102;BMP280;9683;49.028;12.064;2023-09-19T05:16:41;96969.91;;;18.47
19102;BMP280;9683;49.028;12.064;2023-09-19T05:19:08;96978.22;;;18.50
19102;BMP280;9683;49.028;12.064;2023-09-19T05:21:37;96948.41;;;18.31
19102;BMP280;9683;49.028;12.064;2023-09-19T05:24:04;96983.88;;;18.49
19102;BMP280;9683;49.028;12.064;2023-09-19T05:26:32;96983.66;;;18.45
19102;BMP280;9683;49.028;12.064;2023-09-19T05:28:59;96979.09;;;18.41
19102;BMP280;9683;49.028;12.064;2023-09-19T05:31:26;96993.63;;;18.40
19102;BMP280;9683;49.028;12.064;2023-09-19T05:33:53;96977.00;;;18.32
19102;BMP280;9683;49.028;12.064;2023-09-19T05:36:20;96989.63;;;18.37
19102;BMP280;9683;49.028;12.064;2023-09-19T05:38:47;96987.47;;;18.39
19102;BMP280;9683;49.028;12.064;2023-09-19T05:41:18;96995.81;;;18.38
19102;BMP280;9683;49.028;12.064;2023-09-19T05:43:45;96986.94;;;18.37
19102;BMP280;9683;49.028;12.064;2023-09-19T05:46:12;97002.53;;;18.40
19102;BMP280;9683;49.028;12.064;2023-09-19T05:48:41;96990.19;;;18.34
19102;BMP280;9683;49.028;12.064;2023-09-19T05:51:09;97001.22;;;18.38
19102;BMP280;9683;49.028;12.064;2023-09-19T05:53:36;96992.91;;;18.29
19102;BMP280;9683;49.028;12.064;2023-09-19T05:56:02;96996.94;;;18.31
19102;BMP280;9683;49.028;12.064;2023-09-19T05:58:29;97008.25;;;18.33
19102;BMP280;9683;49.028;12.064;2023-09-19T06:00:55;97007.44;;;18.33
19102;BMP280;9683;49.028;12.064;2023-09-19T06:03:24;97006.63;;;18.32
19102;BMP280;9683;49.028;12.064;2023-09-19T06:05:50;96987.81;;;18.22
19102;BMP280;9683;49.028;12.064;2023-09-19T06:08:18;97019.03;;;18.28
19102;BMP280;9683;49.028;12.064;2023-09-19T06:10:45;97016.09;;;18.25
19102;BMP280;9683;49.028;12.064;2023-09-19T06:13:12;97009.69;;;18.16
19102;BMP280;9683;49.028;12.064;2023-09-19T06:15:38;97020.69;;;18.24
19102;BMP280;9683;49.028;12.064;2023-09-19T06:18:10;97020.94;;;18.23
19102;BMP280;9683;49.028;12.064;2023-09-19T06:20:41;97030.91;;;18.27
19102;BMP280;9683;49.028;12.064;2023-09-19T06:23:09;97029.59;;;18.25
19102;BMP280;9683;49.028;12.064;2023-09-19T06:25:36;97028.75;;;18.29
19102;BMP280;9683;49.028;12.064;2023-09-19T06:28:03;97029.81;;;18.33
19102;BMP280;9683;49.028;12.064;2023-09-19T06:30:31;97036.00;;;18.34
19102;BMP280;9683;49.028;12.064;2023-09-19T06:33:00;97020.66;;;18.29
19102;BMP280;9683;49.028;12.064;2023-09-19T06:35:32;97029.00;;;18.33
19102;BMP280;9683;49.028;12.064;2023-09-19T06:38:02;97025.72;;;18.36
19102;BMP280;9683;49.028;12.064;2023-09-19T06:40:29;97045.94;;;18.39
19102;BMP280;9683;49.028;12.064;2023-09-19T06:42:56;97048.06;;;18.47
19102;BMP280;9683;49.028;12.064;2023-09-19T06:45:23;97059.09;;;18.50
19102;BMP280;9683;49.028;12.064;2023-09-19T06:47:52;97041.06;;;18.41
19102;BMP280;9683;49.028;12.064;2023-09-19T06:50:23;97062.03;;;18.59
19102;BMP280;9683;49.028;12.064;2023-09-19T06:52:50;97062.28;;;18.62
19102;BMP280;9683;49.028;12.064;2023-09-19T06:55:19;97058.50;;;18.63
19102;BMP280;9683;49.028;12.064;2023-09-19T06:57:46;97067.09;;;18.65
19102;BMP280;9683;49.028;12.064;2023-09-19T07:00:13;97060.31;;;18.73
19102;BMP280;9683;49.028;12.064;2023-09-19T07:02:43;97068.91;;;18.80
19102;BMP280;9683;49.028;12.064;2023-09-19T07:05:10;97074.00;;;18.82
19102;BMP280;9683;49.028;12.064;2023-09-19T07:07:36;97076.97;;;18.85
19102;BMP280;9683;49.028;12.064;2023-09-19T07:10:03;97076.41;;;18.88
19102;BMP280;9683;49.028;12.064;2023-09-19T07:12:32;97079.06;;;18.93
19102;BMP280;9683;49.028;12.064;2023-09-19T07:14:59;97081.22;;;18.96
19102;BMP280;9683;49.028;12.064;2023-09-19T07:17:25;97085.75;;;19.01
19102;BMP280;9683;49.028;12.064;2023-09-19T07:19:53;97090.84;;;19.02
19102;BMP280;9683;49.028;12.064;2023-09-19T07:22:19;97069.63;;;18.91
19102;BMP280;9683;49.028;12.064;2023-09-19T07:24:46;97091.34;;;19.14
19102;BMP280;9683;49.028;12.064;2023-09-19T07:27:14;97097.28;;;19.11
19102;BMP280;9683;49.028;12.064;2023-09-19T07:29:42;97098.88;;;19.12
19102;BMP280;9683;49.028;12.064;2023-09-19T07:32:09;97098.31;;;19.15
19102;BMP280;9683;49.028;12.064;2023-09-19T07:34:35;97094.28;;;19.18
19102;BMP280;9683;49.028;12.064;2023-09-19T07:37:02;97095.34;;;19.17
19102;BMP280;9683;49.028;12.064;2023-09-19T07:39:28;97111.78;;;19.20
19102;BMP280;9683;49.028;12.064;2023-09-19T07:41:55;97093.44;;;19.22
19102;BMP280;9683;49.028;12.064;2023-09-19T07:44:22;97102.28;;;19.28
19102;BMP280;9683;49.028;12.064;2023-09-19T07:46:52;97107.38;;;19.35
19102;BMP280;9683;49.028;12.064;2023-09-19T07:49:20;97100.34;;;19.34
19102;BMP280;9683;49.028;12.064;2023-09-19T07:51:46;97112.69;;;19.45
19102;BMP280;9683;49.028;12.064;2023-09-19T07:54:13;97113.69;;;19.54
19102;BMP280;9683;49.028;12.064;2023-09-19T07:56:40;97112.03;;;19.58
19102;BMP280;9683;49.028;12.064;2023-09-19T07:59:06;97122.56;;;19.59
19102;BMP280;9683;49.028;12.064;2023-09-19T08:01:33;97128.81;;;19.55
19102;BMP280;9683;49.028;12.064;2023-09-19T08:04:02;97138.84;;;19.49
19102;BMP280;9683;49.028;12.064;2023-09-19T08:06:28;97128.38;;;19.43
19102;BMP280;9683;49.028;12.064;2023-09-19T08:08:55;97117.34;;;19.34
19102;BMP280;9683;49.028;12.064;2023-09-19T08:11:23;97133.44;;;19.49
19102;BMP280;9683;49.028;12.064;2023-09-19T08:13:50;97124.84;;;19.42
19102;BMP280;9683;49.028;12.064;2023-09-19T08:16:17;97130.19;;;19.52
19102;BMP280;9683;49.028;12.064;2023-09-19T08:18:47;97137.69;;;19.60
19102;BMP280;9683;49.028;12.064;2023-09-19T08:21:14;97131.47;;;19.60
19102;BMP280;9683;49.028;12.064;2023-09-19T08:23:41;97142.56;;;19.58
19102;BMP280;9683;49.028;12.064;2023-09-19T08:26:08;97139.56;;;19.60
19102;BMP280;9683;49.028;12.064;2023-09-19T08:28:35;97134.13;;;19.65
19102;BMP280;9683;49.028;12.064;2023-09-19T08:31:02;97128.66;;;19.70
19102;BMP280;9683;49.028;12.064;2023-09-19T08:33:31;97141.81;;;19.82
19102;BMP280;9683;49.028;12.064;2023-09-19T08:35:58;97148.03;;;19.82
19102;BMP280;9683;49.028;12.064;2023-09-19T08:38:26;97147.22;;;19.82
19102;BMP280;9683;49.028;12.064;2023-09-19T08:40:57;97143.41;;;19.83
19102;BMP280;9683;49.028;12.064;2023-09-19T08:43:23;97141.88;;;19.77
19102;BMP280;9683;49.028;12.064;2023-09-19T08:45:50;97137.53;;;19.76
19102;BMP280;9683;49.028;12.064;2023-09-19T08:48:22;97140.16;;;19.86
19102;BMP280;9683;49.028;12.064;2023-09-19T08:50:52;97154.13;;;19.93
19102;BMP280;9683;49.028;12.064;2023-09-19T08:53:29;97135.44;;;19.96
19102;BMP280;9683;49.028;12.064;2023-09-19T08:55:59;97147.78;;;20.07
19102;BMP280;9683;49.028;12.064;2023-09-19T08:58:31;97130.50;;;20.03
19102;BMP280;9683;49.028;12.064;2023-09-19T09:01:01;97149.59;;;20.12
19102;BMP280;9683;49.028;12.064;2023-09-19T09:03:32;97155.75;;;20.18
19102;BMP280;9683;49.028;12.064;2023-09-19T09:05:59;97151.97;;;20.19
19102;BMP280;9683;49.028;12.064;2023-09-19T09:08:28;97163.06;;;20.17
19102;BMP280;9683;49.028;12.064;2023-09-19T09:10:56;97186.88;;;20.15
19102;BMP280;9683;49.028;12.064;2023-09-19T09:13:24;97157.47;;;20.08
19102;BMP280;9683;49.028;12.064;2023-09-19T09:15:51;97169.84;;;20.14
19102;BMP280;9683;49.028;12.064;2023-09-19T09:18:19;97179.84;;;19.90
19102;BMP280;9683;49.028;12.064;2023-09-19T09:20:47;97188.94;;;19.65
19102;BMP280;9683;49.028;12.064;2023-09-19T09:23:14;97169.75;;;19.67
19102;BMP280;9683;49.028;12.064;2023-09-19T09:25:51;97185.34;;;19.75
19102;BMP280;9683;49.028;12.064;2023-09-19T09:28:24;97176.50;;;19.70
19102;BMP280;9683;49.028;12.064;2023-09-19T09:30:52;97166.56;;;19.65
19102;BMP280;9683;49.028;12.064;2023-09-19T09:33:18;97178.34;;;19.74
19102;BMP280;9683;49.028;12.064;2023-09-19T09:35:50;97169.28;;;19.60
19102;BMP280;9683;49.028;12.064;2023-09-19T09:38:19;97171.22;;;19.54
19102;BMP280;9683;49.028;12.064;2023-09-19T09:40:48;97169.31;;;19.55
19102;BMP280;9683;49.028;12.064;2023-09-19T09:43:31;97179.31;;;19.54
19102;BMP280;9683;49.028;12.064;2023-09-19T09:46:08;97182.03;;;19.49
19102;BMP280;9683;49.028;12.064;2023-09-19T09:48:59;97179.09;;;19.46
19102;BMP280;9683;49.028;12.064;2023-09-19T09:51:45;97171.31;;;19.44
19102;BMP280;9683;49.028;12.064;2023-09-19T09:54:15;97175.09;;;19.43
19102;BMP280;9683;49.028;12.064;2023-09-19T09:56:57;97198.22;;;19.54
19102;BMP280;9683;49.028;12.064;2023-09-19T09:59:46;97193.06;;;19.58
19102;BMP280;9683;49.028;12.064;2023-09-19T10:02:15;97204.66;;;19.58
19102;BMP280;9683;49.028;12.064;2023-09-19T10:04:45;97192.22;;;19.62
19102;BMP280;9683;49.028;12.064;2023-09-19T10:07:27;97212.97;;;19.67
19102;BMP280;9683;49.028;12.064;2023-09-19T10:09:58;97202.16;;;19.67
19102;BMP280;9683;49.028;12.064;2023-09-19T10:12:38;97190.56;;;19.66
19102;BMP280;9683;49.028;12.064;2023-09-19T10:15:08;97192.34;;;19.81
19102;BMP280;9683;49.028;12.064;2023-09-19T10:17:36;97186.63;;;19.83
19102;BMP280;9683;49.028;12.064;2023-09-19T10:20:04;97190.91;;;19.89
19102;BMP280;9683;49.028;12.064;2023-09-19T10:22:43;97165.31;;;19.81
19102;BMP280;9683;49.028;12.064;2023-09-19T10:25:20;97176.84;;;19.92
19102;BMP280;9683;49.028;12.064;2023-09-19T10:27:50;97201.03;;;20.07
19102;BMP280;9683;49.028;12.064;2023-09-19T10:30:20;97205.28;;;20.13
19102;BMP280;9683;49.028;12.064;2023-09-19T10:32:48;97217.13;;;20.17
19102;BMP280;9683;49.028;12.064;2023-09-19T10:35:20;97203.84;;;20.21
19102;BMP280;9683;49.028;12.064;2023-09-19T10:37:47;97209.78;;;20.23
19102;BMP280;9683;49.028;12.064;2023-09-19T10:40:18;97218.72;;;20.23
19102;BMP280;9683;49.028;12.064;2023-09-19T10:42:49;97209.47;;;20.29
19102;BMP280;9683;49.028;12.064;2023-09-19T10:45:17;97211.63;;;20.32
19102;BMP280;9683;49.028;12.064;2023-09-19T10:47:45;97190.72;;;20.38
19102;BMP280;9683;49.028;12.064;2023-09-19T10:50:19;97188.25;;;20.41
19102;BMP280;9683;49.028;12.064;2023-09-19T10:52:47;97191.88;;;20.55
19102;BMP280;9683;49.028;12.064;2023-09-19T10:55:16;97200.75;;;20.61
19102;BMP280;9683;49.028;12.064;2023-09-19T10:57:44;97207.25;;;20.60
19102;BMP280;9683;49.028;12.064;2023-09-19T11:00:13;97189.16;;;20.55
19102;BMP280;9683;49.028;12.064;2023-09-19T11:03:16;97206.59;;;20.68
19102;BMP280;9683;49.028;12.064;2023-09-19T11:06:00;97214.09;;;20.76
19102;BMP280;9683;49.028;12.064;2023-09-19T11:08:28;97195.72;;;20.73
19102;BMP280;9683;49.028;12.064;2023-09-19T11:10:55;97200.06;;;20.74
19102;BMP280;9683;49.028;12.064;2023-09-19T11:13:24;97199.56;;;20.67
19102;BMP280;9683;49.028;12.064;2023-09-19T11:16:04;97202.81;;;20.69
19102;BMP280;9683;49.028;12.064;2023-09-19T11:18:56;97195.78;;;20.68
19102;BMP280;9683;49.028;12.064;2023-09-19T11:21:51;97204.94;;;20.72
19102;BMP280;9683;49.028;12.064;2023-09-19T11:24:32;97194.63;;;20.74
19102;BMP280;9683;49.028;12.064;2023-09-19T11:27:10;97199.69;;;20.81
19102;BMP280;9683;49.028;12.064;2023-09-19T11:29:39;97178.19;;;20.71
19102;BMP280;9683;49.028;12.064;2023-09-19T11:32:07;97204.13;;;20.95
19102;BMP280;9683;49.028;12.064;2023-09-19T11:34:47;97200.44;;;21.05
19102;BMP280;9683;49.028;12.064;2023-09-19T11:40:28;97208.88;;;21.03
19102;BMP280;9683;49.028;12.064;2023-09-19T11:42:55;97186.91;;;21.05
19102;BMP280;9683;49.028;12.064;2023-09-19T11:48:28;97194.22;;;21.28
19102;BMP280;9683;49.028;12.064;2023-09-19T11:50:56;97202.78;;;21.35
19102;BMP280;9683;49.028;12.064;2023-09-19T11:53:31;97192.34;;;21.42
19102;BMP280;9683;49.028;12.064;2023-09-19T11:55:58;97181.97;;;21.31
19102;BMP280;9683;49.028;12.064;2023-09-19T11:58:26;97208.41;;;21.39
19102;BMP280;9683;49.028;12.064;2023-09-19T12:00:55;97179.41;;;21.39
19102;BMP280;9683;49.028;12.064;2023-09-19T12:03:30;97188.28;;;21.45
19102;BMP280;9683;49.028;12.064;2023-09-19T12:05:58;97180.09;;;21.50
19102;BMP280;9683;49.028;12.064;2023-09-19T12:08:24;97158.34;;;21.36
19102;BMP280;9683;49.028;12.064;2023-09-19T12:10:53;97179.91;;;21.60
19102;BMP280;9683;49.028;12.064;2023-09-19T12:13:20;97178.00;;;21.61
19102;BMP280;9683;49.028;12.064;2023-09-19T12:15:47;97184.66;;;21.68
19102;BMP280;9683;49.028;12.064;2023-09-19T12:18:27;97169.72;;;21.71
19102;BMP280;9683;49.028;12.064;2023-09-19T12:20:56;97167.84;;;21.85
19102;BMP280;9683;49.028;12.064;2023-09-19T12:23:23;97177.78;;;21.89
19102;BMP280;9683;49.028;12.064;2023-09-19T12:25:51;97188.41;;;21.86
19102;BMP280;9683;49.028;12.064;2023-09-19T12:28:19;97173.72;;;21.92
19102;BMP280;9683;49.028;12.064;2023-09-19T12:30:47;97172.31;;;21.94
19102;BMP280;9683;49.028;12.064;2023-09-19T12:33:16;97157.50;;;21.87
19102;BMP280;9683;49.028;12.064;2023-09-19T12:35:44;97159.56;;;21.95
19102;BMP280;9683;49.028;12.064;2023-09-19T12:38:22;97146.63;;;22.06
19102;BMP280;9683;49.028;12.064;2023-09-19T12:40:50;97165.34;;;22.21
19102;BMP280;9683;49.028;12.064;2023-09-19T12:43:18;97152.56;;;22.35
19102;BMP280;9683;49.028;12.064;2023-09-19T12:45:44;97154.78;;;22.33
19102;BMP280;9683;49.028;12.064;2023-09-19T12:48:23;97146.56;;;22.38
19102;BMP280;9683;49.028;12.064;2023-09-19T12:51:02;97138.19;;;22.48
19102;BMP280;9683;49.028;12.064;2023-09-19T12:53:32;97154.91;;;22.55
19102;BMP280;9683;49.028;12.064;2023-09-19T12:56:01;97170.66;;;22.53
19102;BMP280;9683;49.028;12.064;2023-09-19T12:58:31;97162.53;;;22.53
19102;BMP280;9683;49.028;12.064;2023-09-19T13:01:00;97154.38;;;22.53
19102;BMP280;9683;49.028;12.064;2023-09-19T13:03:28;97164.94;;;22.55
19102;BMP280;9683;49.028;12.064;2023-09-19T13:05:57;97150.19;;;22.47
19102;BMP280;9683;49.028;12.064;2023-09-19T13:08:27;97156.91;;;22.50
19102;BMP280;9683;49.028;12.064;2023-09-19T13:11:08;97173.38;;;22.39
19102;BMP280;9683;49.028;12.064;2023-09-19T13:13:40;97153.50;;;22.30
19102;BMP280;9683;49.028;12.064;2023-09-19T13:16:07;97146.13;;;22.04
19102;BMP280;9683;49.028;12.064;2023-09-19T13:18:44;97151.13;;;22.10
19102;BMP280;9683;49.028;12.064;2023-09-19T13:21:12;97170.13;;;22.10
19102;BMP280;9683;49.028;12.064;2023-09-19T13:23:49;97153.06;;;22.10
19102;BMP280;9683;49.028;12.064;2023-09-19T13:26:17;97140.53;;;22.14
19102;BMP280;9683;49.028;12.064;2023-09-19T13:28:44;97137.41;;;22.20
19102;BMP280;9683;49.028;12.064;2023-09-19T13:31:13;97135.28;;;22.31
19102;BMP280;9683;49.028;12.064;2023-09-19T13:33:43;97136.28;;;22.35
19102;BMP280;9683;49.028;12.064;2023-09-19T13:36:10;97129.19;;;22.39
19102;BMP280;9683;49.028;12.064;2023-09-19T13:38:37;97137.09;;;22.49
19102;BMP280;9683;49.028;12.064;2023-09-19T13:41:03;97132.16;;;22.65
19102;BMP280;9683;49.028;12.064;2023-09-19T13:43:31;97135.41;;;22.80
19102;BMP280;9683;49.028;12.064;2023-09-19T13:45:58;97137.22;;;22.85
19102;BMP280;9683;49.028;12.064;2023-09-19T13:48:24;97144.75;;;22.74
19102;BMP280;9683;49.028;12.064;2023-09-19T13:50:51;97148.38;;;22.70
19102;BMP280;9683;49.028;12.064;2023-09-19T13:53:17;97154.91;;;22.69
19102;BMP280;9683;49.028;12.064;2023-09-19T13:55:44;97123.94;;;22.70
19102;BMP280;9683;49.028;12.064;2023-09-19T13:58:11;97131.63;;;23.04
19102;BMP280;9683;49.028;12.064;2023-09-19T14:00:39;97127.03;;;23.26
19102;BMP280;9683;49.028;12.064;2023-09-19T14:03:06;97128.56;;;23.41
19102;BMP280;9683;49.028;12.064;2023-09-19T14:05:33;97129.28;;;23.47
19102;BMP280;9683;49.028;12.064;2023-09-19T14:07:59;97103.16;;;23.23
19102;BMP280;9683;49.028;12.064;2023-09-19T14:10:28;97141.16;;;23.37
19102;BMP280;9683;49.028;12.064;2023-09-19T14:12:56;97124.84;;;23.37
19102;BMP280;9683;49.028;12.064;2023-09-19T14:15:23;97121.91;;;23.25
19102;BMP280;9683;49.028;12.064;2023-09-19T14:17:56;97132.53;;;23.35
19102;BMP280;9683;49.028;12.064;2023-09-19T14:20:24;97131.72;;;23.35
19102;BMP280;9683;49.028;12.064;2023-09-19T14:22:51;97130.13;;;23.34
19102;BMP280;9683;49.028;12.064;2023-09-19T14:25:18;97135.84;;;23.32
19102;BMP280;9683;49.028;12.064;2023-09-19T14:27:44;97117.97;;;23.31
19102;BMP280;9683;49.028;12.064;2023-09-19T14:30:13;97122.94;;;23.38